sensor_id;sensor_type;location;lat;lon;timestamp;pressure;altitude;pressure_sealevel;temperature
37452;BMP280;23314;51.114;6.900;2024-01-25T00:01:12;102354.28;;;10.16
37452;BMP280;23314;51.114;6.900;2024-01-25T00:03:38;102343.59;;;10.16
37452;BMP280;23314;51.114;6.900;2024-01-25T00:06:06;102340.94;;;10.16
37452;BMP280;23314;51.114;6.900;2024-01-25T00:08:33;102339.38;;;10.15
37452;BMP280;23314;51.114;6.900;2024-01-25T00:10:59;102337.47;;;10.16
37452;BMP280;23314;51.114;6.900;2024-01-25T00:13:25;102349.34;;;10.18
37452;BMP280;23314;51.114;6.900;2024-01-25T00:15:51;102355.44;;;10.19
37452;BMP280;23314;51.114;6.900;2024-01-25T00:18:16;102346.28;;;10.20
37452;BMP280;23314;51.114;6.900;2024-01-25T00:20:42;102347.84;;;10.21
37452;BMP280;23314;51.114;6.900;2024-01-25T00:23:07;102348.97;;;10.20
37452;BMP280;23314;51.114;6.900;2024-01-25T00:25:32;102350.13;;;10.19
37452;BMP280;23314;51.114;6.900;2024-01-25T00:27:58;102352.03;;;10.18
37452;BMP280;23314;51.114;6.900;2024-01-25T00:30:23;102352.78;;;10.19
37452;BMP280;23314;51.114;6.900;2024-01-25T00:32:48;102345.91;;;10.18
37452;BMP280;23314;51.114;6.900;2024-01-25T00:35:15;102350.47;;;10.17
37452;BMP280;23314;51.114;6.900;2024-01-25T00:37:41;102348.94;;;10.16
37452;BMP280;23314;51.114;6.900;2024-01-25T00:40:08;102352.31;;;10.13
37452;BMP280;23314;51.114;6.900;2024-01-25T00:42:41;102351.88;;;10.11
37452;BMP280;23314;51.114;6.900;2024-01-25T00:45:07;102364.81;;;10.09
37452;BMP280;23314;51.114;6.900;2024-01-25T00:47:33;102350.31;;;10.06
37452;BMP280;23314;51.114;6.900;2024-01-25T00:49:59;102342.56;;;9.98
37452;BMP280;23314;51.114;6.900;2024-01-25T00:52:24;102357.66;;;9.90
37452;BMP280;23314;51.114;6.900;2024-01-25T00:54:50;102375.50;;;9.86
37452;BMP280;23314;51.114;6.900;2024-01-25T00:57:16;102362.47;;;9.81
37452;BMP280;23314;51.114;6.900;2024-01-25T00:59:41;102353.16;;;9.71
37452;BMP280;23314;51.114;6.900;2024-01-25T01:02:11;102358.69;;;9.62
37452;BMP280;23314;51.114;6.900;2024-01-25T01:04:37;102356.63;;;9.52
37452;BMP280;23314;51.114;6.900;2024-01-25T01:07:03;102366.03;;;9.45
37452;BMP280;23314;51.114;6.900;2024-01-25T01:09:29;102369.31;;;9.39
37452;BMP280;23314;51.114;6.900;2024-01-25T01:11:54;102377.50;;;9.30
37452;BMP280;23314;51.114;6.900;2024-01-25T01:14:20;102370.19;;;9.23
37452;BMP280;23314;51.114;6.900;2024-01-25T01:16:45;102376.19;;;9.20
37452;BMP280;23314;51.114;6.900;2024-01-25T01:19:10;102381.44;;;9.17
37452;BMP280;23314;51.114;6.900;2024-01-25T01:21:36;102381.00;;;9.14
37452;BMP280;23314;51.114;6.900;2024-01-25T01:24:01;102375.59;;;9.11
37452;BMP280;23314;51.114;6.900;2024-01-25T01:26:27;102363.38;;;9.06
37452;BMP280;23314;51.114;6.900;2024-01-25T01:28:52;102368.94;;;9.01
37452;BMP280;23314;51.114;6.900;2024-01-25T01:31:17;102365.03;;;8.95
37452;BMP280;23314;51.114;6.900;2024-01-25T01:33:43;102366.50;;;8.92
37452;BMP280;23314;51.114;6.900;2024-01-25T01:36:08;102375.16;;;8.89
37452;BMP280;23314;51.114;6.900;2024-01-25T01:38:33;102369.00;;;8.85
37452;BMP280;23314;51.114;6.900;2024-01-25T01:40:59;102363.94;;;8.80
37452;BMP280;23314;51.114;6.900;2024-01-25T01:43:24;102370.66;;;8.74
37452;BMP280;23314;51.114;6.900;2024-01-25T01:45:49;102380.38;;;8.66
37452;BMP280;23314;51.114;6.900;2024-01-25T01:48:16;102376.06;;;8.61
37452;BMP280;23314;51.114;6.900;2024-01-25T01:50:42;102377.47;;;8.55
37452;BMP280;23314;51.114;6.900;2024-01-25T01:53:08;102376.94;;;8.49
37452;BMP280;23314;51.114;6.900;2024-01-25T01:55:34;102376.09;;;8.45
37452;BMP280;23314;51.114;6.900;2024-01-25T01:57:59;102386.75;;;8.45
37452;BMP280;23314;51.114;6.900;2024-01-25T02:00:26;102383.25;;;8.41
37452;BMP280;23314;51.114;6.900;2024-01-25T02:02:51;102395.00;;;8.40
37452;BMP280;23314;51.114;6.900;2024-01-25T02:05:17;102396.38;;;8.34
37452;BMP280;23314;51.114;6.900;2024-01-25T02:07:42;102403.81;;;8.28
37452;BMP280;23314;51.114;6.900;2024-01-25T02:10:09;102406.03;;;8.26
37452;BMP280;23314;51.114;6.900;2024-01-25T02:12:35;102406.38;;;8.25
37452;BMP280;23314;51.114;6.900;2024-01-25T02:15:00;102412.06;;;8.23
37452;BMP280;23314;51.114;6.900;2024-01-25T02:17:25;102418.53;;;8.26
37452;BMP280;23314;51.114;6.900;2024-01-25T02:19:51;102412.50;;;8.25
37452;BMP280;23314;51.114;6.900;2024-01-25T02:22:19;102415.16;;;8.25
37452;BMP280;23314;51.114;6.900;2024-01-25T02:24:45;102421.63;;;8.28
37452;BMP280;23314;51.114;6.900;2024-01-25T02:27:10;102421.31;;;8.29
37452;BMP280;23314;51.114;6.900;2024-01-25T02:29:35;102430.59;;;8.35
37452;BMP280;23314;51.114;6.900;2024-01-25T02:32:01;102433.06;;;8.44
37452;BMP280;23314;51.114;6.900;2024-01-25T02:34:26;102438.25;;;8.53
37452;BMP280;23314;51.114;6.900;2024-01-25T02:36:51;102440.38;;;8.63
37452;BMP280;23314;51.114;6.900;2024-01-25T02:39:17;102448.94;;;8.73
37452;BMP280;23314;51.114;6.900;2024-01-25T02:41:43;102459.84;;;8.83
37452;BMP280;23314;51.114;6.900;2024-01-25T02:44:08;102463.44;;;8.91
37452;BMP280;23314;51.114;6.900;2024-01-25T02:46:33;102459.81;;;8.99
37452;BMP280;23314;51.114;6.900;2024-01-25T02:48:59;102456.59;;;9.10
37452;BMP280;23314;51.114;6.900;2024-01-25T02:51:24;102452.91;;;9.14
37452;BMP280;23314;51.114;6.900;2024-01-25T02:53:49;102444.63;;;9.20
37452;BMP280;23314;51.114;6.900;2024-01-25T02:56:15;102450.81;;;9.24
37452;BMP280;23314;51.114;6.900;2024-01-25T02:58:40;102459.66;;;9.28
37452;BMP280;23314;51.114;6.900;2024-01-25T03:01:06;102456.63;;;9.29
37452;BMP280;23314;51.114;6.900;2024-01-25T03:03:31;102454.41;;;9.31
37452;BMP280;23314;51.114;6.900;2024-01-25T03:05:57;102448.75;;;9.33
37452;BMP280;23314;51.114;6.900;2024-01-25T03:08:22;102446.50;;;9.35
37452;BMP280;23314;51.114;6.900;2024-01-25T03:10:47;102439.97;;;9.32
37452;BMP280;23314;51.114;6.900;2024-01-25T03:13:15;102432.66;;;9.29
37452;BMP280;23314;51.114;6.900;2024-01-25T03:15:44;102427.22;;;9.22
37452;BMP280;23314;51.114;6.900;2024-01-25T03:18:10;102421.66;;;9.11
37452;BMP280;23314;51.114;6.900;2024-01-25T03:20:36;102425.97;;;9.00
37452;BMP280;23314;51.114;6.900;2024-01-25T03:23:01;102428.78;;;8.88
37452;BMP280;23314;51.114;6.900;2024-01-25T03:25:26;102411.78;;;8.76
37452;BMP280;23314;51.114;6.900;2024-01-25T03:27:52;102416.41;;;8.63
37452;BMP280;23314;51.114;6.900;2024-01-25T03:30:17;102422.28;;;8.53
37452;BMP280;23314;51.114;6.900;2024-01-25T03:32:42;102424.34;;;8.44
37452;BMP280;23314;51.114;6.900;2024-01-25T03:35:08;102432.09;;;8.36
37452;BMP280;23314;51.114;6.900;2024-01-25T03:37:33;102438.13;;;8.33
37452;BMP280;23314;51.114;6.900;2024-01-25T03:39:59;102448.94;;;8.25
37452;BMP280;23314;51.114;6.900;2024-01-25T03:42:24;102442.75;;;8.20
37452;BMP280;23314;51.114;6.900;2024-01-25T03:44:52;102442.19;;;8.15
37452;BMP280;23314;51.114;6.900;2024-01-25T03:47:17;102448.88;;;8.09
37452;BMP280;23314;51.114;6.900;2024-01-25T03:49:42;102452.94;;;8.02
37452;BMP280;23314;51.114;6.900;2024-01-25T03:52:08;102461.56;;;7.99
37452;BMP280;23314;51.114;6.900;2024-01-25T03:54:33;102460.03;;;7.98
37452;BMP280;23314;51.114;6.900;2024-01-25T03:56:58;102464.47;;;7.94
37452;BMP280;23314;51.114;6.900;2024-01-25T03:59:24;102462.84;;;7.90
37452;BMP280;23314;51.114;6.900;2024-01-25T04:01:49;102466.81;;;7.83
37452;BMP280;23314;51.114;6.900;2024-01-25T04:04:15;102469.72;;;7.78
37452;BMP280;23314;51.114;6.900;2024-01-25T04:06:41;102471.84;;;7.72
37452;BMP280;23314;51.114;6.900;2024-01-25T04:09:07;102469.50;;;7.71
37452;BMP280;23314;51.114;6.900;2024-01-25T04:11:32;102483.50;;;7.68
37452;BMP280;23314;51.114;6.900;2024-01-25T04:13:58;102481.16;;;7.66
37452;BMP280;23314;51.114;6.900;2024-01-25T04:16:23;102475.53;;;7.68
37452;BMP280;23314;51.114;6.900;2024-01-25T04:18:48;102473.19;;;7.66
37452;BMP280;23314;51.114;6.900;2024-01-25T04:21:14;102471.19;;;7.63
37452;BMP280;23314;51.114;6.900;2024-01-25T04:23:41;102476.00;;;7.58
37452;BMP280;23314;51.114;6.900;2024-01-25T04:26:06;102481.19;;;7.54
37452;BMP280;23314;51.114;6.900;2024-01-25T04:28:32;102481.41;;;7.49
37452;BMP280;23314;51.114;6.900;2024-01-25T04:30:57;102488.06;;;7.43
37452;BMP280;23314;51.114;6.900;2024-01-25T04:33:22;102486.28;;;7.34
37452;BMP280;23314;51.114;6.900;2024-01-25T04:35:48;102483.88;;;7.29
37452;BMP280;23314;51.114;6.900;2024-01-25T04:38:13;102482.19;;;7.24
37452;BMP280;23314;51.114;6.900;2024-01-25T04:40:38;102492.72;;;7.21
37452;BMP280;23314;51.114;6.900;2024-01-25T04:43:03;102500.13;;;7.15
37452;BMP280;23314;51.114;6.900;2024-01-25T04:45:29;102490.50;;;7.11
37452;BMP280;23314;51.114;6.900;2024-01-25T04:47:54;102494.50;;;7.04
37452;BMP280;23314;51.114;6.900;2024-01-25T04:50:19;102491.72;;;7.01
37452;BMP280;23314;51.114;6.900;2024-01-25T04:52:45;102487.41;;;6.96
37452;BMP280;23314;51.114;6.900;2024-01-25T04:55:10;102491.06;;;6.91
37452;BMP280;23314;51.114;6.900;2024-01-25T04:57:35;102497.66;;;6.85
37452;BMP280;23314;51.114;6.900;2024-01-25T05:00:01;102501.00;;;6.82
37452;BMP280;23314;51.114;6.900;2024-01-25T05:02:26;102499.00;;;6.79
37452;BMP280;23314;51.114;6.900;2024-01-25T05:04:51;102502.63;;;6.74
37452;BMP280;23314;51.114;6.900;2024-01-25T05:07:17;102499.06;;;6.70
37452;BMP280;23314;51.114;6.900;2024-01-25T05:09:42;102502.38;;;6.67
37452;BMP280;23314;51.114;6.900;2024-01-25T05:12:07;102507.56;;;6.64
37452;BMP280;23314;51.114;6.900;2024-01-25T05:14:33;102505.13;;;6.58
37452;BMP280;23314;51.114;6.900;2024-01-25T05:16:58;102508.31;;;6.52
37452;BMP280;23314;51.114;6.900;2024-01-25T05:19:23;102494.59;;;6.50
37452;BMP280;23314;51.114;6.900;2024-01-25T05:21:50;102495.25;;;6.46
37452;BMP280;23314;51.114;6.900;2024-01-25T05:24:15;102489.19;;;6.46
37452;BMP280;23314;51.114;6.900;2024-01-25T05:26:41;102492.47;;;6.43
37452;BMP280;23314;51.114;6.900;2024-01-25T05:29:07;102499.34;;;6.44
37452;BMP280;23314;51.114;6.900;2024-01-25T05:31:32;102491.38;;;6.44
37452;BMP280;23314;51.114;6.900;2024-01-25T05:33:57;102493.91;;;6.40
37452;BMP280;23314;51.114;6.900;2024-01-25T05:36:23;102494.88;;;6.36
37452;BMP280;23314;51.114;6.900;2024-01-25T05:38:48;102498.63;;;6.35
37452;BMP280;23314;51.114;6.900;2024-01-25T05:41:13;102493.22;;;6.31
37452;BMP280;23314;51.114;6.900;2024-01-25T05:43:39;102495.41;;;6.29
37452;BMP280;23314;51.114;6.900;2024-01-25T05:46:05;102492.66;;;6.25
37452;BMP280;23314;51.114;6.900;2024-01-25T05:48:31;102482.56;;;6.19
37452;BMP280;23314;51.114;6.900;2024-01-25T05:50:56;102482.00;;;6.13
37452;BMP280;23314;51.114;6.900;2024-01-25T05:53:21;102481.88;;;6.09
37452;BMP280;23314;51.114;6.900;2024-01-25T05:55:47;102500.59;;;6.04
37452;BMP280;23314;51.114;6.900;2024-01-25T05:58:13;102496.28;;;5.99
37452;BMP280;23314;51.114;6.900;2024-01-25T06:00:38;102495.50;;;5.99
37452;BMP280;23314;51.114;6.900;2024-01-25T06:03:04;102491.75;;;6.00
37452;BMP280;23314;51.114;6.900;2024-01-25T06:05:30;102497.41;;;5.98
37452;BMP280;23314;51.114;6.900;2024-01-25T06:07:56;102510.66;;;5.98
37452;BMP280;23314;51.114;6.900;2024-01-25T06:10:21;102516.88;;;5.94
37452;BMP280;23314;51.114;6.900;2024-01-25T06:12:47;102506.63;;;5.92
37452;BMP280;23314;51.114;6.900;2024-01-25T06:15:12;102517.50;;;5.91
37452;BMP280;23314;51.114;6.900;2024-01-25T06:17:37;102519.53;;;5.94
37452;BMP280;23314;51.114;6.900;2024-01-25T06:20:03;102525.28;;;5.96
37452;BMP280;23314;51.114;6.900;2024-01-25T06:22:29;102525.75;;;5.98
37452;BMP280;23314;51.114;6.900;2024-01-25T06:24:55;102535.03;;;6.04
37452;BMP280;23314;51.114;6.900;2024-01-25T06:27:20;102540.94;;;6.10
37452;BMP280;23314;51.114;6.900;2024-01-25T06:29:45;102540.31;;;6.13
37452;BMP280;23314;51.114;6.900;2024-01-25T06:32:11;102533.63;;;6.07
37452;BMP280;23314;51.114;6.900;2024-01-25T06:34:36;102531.16;;;6.02
37452;BMP280;23314;51.114;6.900;2024-01-25T06:37:01;102529.50;;;5.97
37452;BMP280;23314;51.114;6.900;2024-01-25T06:39:27;102543.69;;;5.92
37452;BMP280;23314;51.114;6.900;2024-01-25T06:41:52;102537.81;;;5.87
37452;BMP280;23314;51.114;6.900;2024-01-25T06:44:17;102547.94;;;5.85
37452;BMP280;23314;51.114;6.900;2024-01-25T06:46:43;102543.31;;;5.81
37452;BMP280;23314;51.114;6.900;2024-01-25T06:49:08;102549.09;;;5.75
37452;BMP280;23314;51.114;6.900;2024-01-25T06:51:34;102547.38;;;5.70
37452;BMP280;23314;51.114;6.900;2024-01-25T06:53:59;102556.66;;;5.64
37452;BMP280;23314;51.114;6.900;2024-01-25T06:56:24;102567.88;;;5.61
37452;BMP280;23314;51.114;6.900;2024-01-25T06:58:50;102568.97;;;5.60
37452;BMP280;23314;51.114;6.900;2024-01-25T07:01:20;102574.88;;;5.57
37452;BMP280;23314;51.114;6.900;2024-01-25T07:03:46;102569.00;;;5.51
37452;BMP280;23314;51.114;6.900;2024-01-25T07:06:11;102567.00;;;5.48
37452;BMP280;23314;51.114;6.900;2024-01-25T07:08:36;102570.56;;;5.43
37452;BMP280;23314;51.114;6.900;2024-01-25T07:11:02;102565.00;;;5.36
37452;BMP280;23314;51.114;6.900;2024-01-25T07:13:27;102568.28;;;5.33
37452;BMP280;23314;51.114;6.900;2024-01-25T07:15:52;102566.59;;;5.28
37452;BMP280;23314;51.114;6.900;2024-01-25T07:18:18;102578.56;;;5.26
37452;BMP280;23314;51.114;6.900;2024-01-25T07:20:44;102578.88;;;5.24
37452;BMP280;23314;51.114;6.900;2024-01-25T07:23:10;102580.75;;;5.24
37452;BMP280;23314;51.114;6.900;2024-01-25T07:25:35;102584.47;;;5.23
37452;BMP280;23314;51.114;6.900;2024-01-25T07:28:02;102584.78;;;5.21
37452;BMP280;23314;51.114;6.900;2024-01-25T07:30:27;102576.72;;;5.17
37452;BMP280;23314;51.114;6.900;2024-01-25T07:32:52;102585.78;;;5.16
37452;BMP280;23314;51.114;6.900;2024-01-25T07:35:18;102590.28;;;5.16
37452;BMP280;23314;51.114;6.900;2024-01-25T07:37:43;102598.22;;;5.16
37452;BMP280;23314;51.114;6.900;2024-01-25T07:40:09;102590.28;;;5.16
37452;BMP280;23314;51.114;6.900;2024-01-25T07:42:35;102584.31;;;5.19
37452;BMP280;23314;51.114;6.900;2024-01-25T07:45:00;102586.66;;;5.20
37452;BMP280;23314;51.114;6.900;2024-01-25T07:47:26;102592.41;;;5.23
37452;BMP280;23314;51.114;6.900;2024-01-25T07:49:51;102592.41;;;5.23
37452;BMP280;23314;51.114;6.900;2024-01-25T07:52:16;102594.75;;;5.24
37452;BMP280;23314;51.114;6.900;2024-01-25T07:54:42;102597.56;;;5.28
37452;BMP280;23314;51.114;6.900;2024-01-25T07:57:09;102596.94;;;5.31
37452;BMP280;23314;51.114;6.900;2024-01-25T07:59:34;102599.41;;;5.36
37452;BMP280;23314;51.114;6.900;2024-01-25T08:02:00;102609.50;;;5.43
37452;BMP280;23314;51.114;6.900;2024-01-25T08:04:25;102604.06;;;5.48
37452;BMP280;23314;51.114;6.900;2024-01-25T08:06:52;102609.31;;;5.57
37452;BMP280;23314;51.114;6.900;2024-01-25T08:09:17;102601.34;;;5.65
37452;BMP280;23314;51.114;6.900;2024-01-25T08:11:42;102615.78;;;5.77
37452;BMP280;23314;51.114;6.900;2024-01-25T08:14:07;102618.03;;;5.87
37452;BMP280;23314;51.114;6.900;2024-01-25T08:16:33;102614.75;;;5.99
37452;BMP280;23314;51.114;6.900;2024-01-25T08:19:00;102614.50;;;6.13
37452;BMP280;23314;51.114;6.900;2024-01-25T08:21:26;102607.72;;;6.24
37452;BMP280;23314;51.114;6.900;2024-01-25T08:23:51;102608.88;;;6.36
37452;BMP280;23314;51.114;6.900;2024-01-25T08:26:16;102600.84;;;6.44
37452;BMP280;23314;51.114;6.900;2024-01-25T08:28:42;102605.78;;;6.55
37452;BMP280;23314;51.114;6.900;2024-01-25T08:31:11;102604.91;;;6.63
37452;BMP280;23314;51.114;6.900;2024-01-25T08:33:38;102602.22;;;6.72
37452;BMP280;23314;51.114;6.900;2024-01-25T08:36:07;102600.59;;;6.80
37452;BMP280;23314;51.114;6.900;2024-01-25T08:38:32;102590.97;;;6.87
37452;BMP280;23314;51.114;6.900;2024-01-25T08:40:57;102592.81;;;6.96
37452;BMP280;23314;51.114;6.900;2024-01-25T08:43:23;102590.50;;;7.06
37452;BMP280;23314;51.114;6.900;2024-01-25T08:45:48;102589.28;;;7.16
37452;BMP280;23314;51.114;6.900;2024-01-25T08:48:13;102596.03;;;7.26
37452;BMP280;23314;51.114;6.900;2024-01-25T08:50:39;102593.38;;;7.38
37452;BMP280;23314;51.114;6.900;2024-01-25T08:53:04;102586.84;;;7.48
37452;BMP280;23314;51.114;6.900;2024-01-25T08:55:30;102583.75;;;7.59
37452;BMP280;23314;51.114;6.900;2024-01-25T08:57:55;102574.94;;;7.67
37452;BMP280;23314;51.114;6.900;2024-01-25T09:00:21;102580.88;;;7.76
37452;BMP280;23314;51.114;6.900;2024-01-25T09:02:46;102576.22;;;7.85
37452;BMP280;23314;51.114;6.900;2024-01-25T09:05:12;102568.88;;;7.95
37452;BMP280;23314;51.114;6.900;2024-01-25T09:07:38;102574.41;;;8.02
37452;BMP280;23314;51.114;6.900;2024-01-25T09:10:03;102581.16;;;8.12
37452;BMP280;23314;51.114;6.900;2024-01-25T09:12:32;102585.66;;;8.24
37452;BMP280;23314;51.114;6.900;2024-01-25T09:14:57;102579.06;;;8.33
37452;BMP280;23314;51.114;6.900;2024-01-25T09:17:23;102582.28;;;8.39
37452;BMP280;23314;51.114;6.900;2024-01-25T09:19:49;102570.94;;;8.42
37452;BMP280;23314;51.114;6.900;2024-01-25T09:22:15;102564.97;;;8.45
37452;BMP280;23314;51.114;6.900;2024-01-25T09:24:43;102566.59;;;8.50
37452;BMP280;23314;51.114;6.900;2024-01-25T09:27:09;102574.69;;;8.54
37452;BMP280;23314;51.114;6.900;2024-01-25T09:29:34;102581.28;;;8.60
37452;BMP280;23314;51.114;6.900;2024-01-25T09:32:00;102593.56;;;8.64
37452;BMP280;23314;51.114;6.900;2024-01-25T09:34:25;102593.31;;;8.70
37452;BMP280;23314;51.114;6.900;2024-01-25T09:36:51;102607.16;;;8.75
37452;BMP280;23314;51.114;6.900;2024-01-25T09:39:16;102598.13;;;8.80
37452;BMP280;23314;51.114;6.900;2024-01-25T09:41:42;102589.59;;;8.87
37452;BMP280;23314;51.114;6.900;2024-01-25T09:44:08;102588.19;;;8.93
37452;BMP280;23314;51.114;6.900;2024-01-25T09:46:34;102593.63;;;8.96
37452;BMP280;23314;51.114;6.900;2024-01-25T09:49:00;102603.16;;;8.97
37452;BMP280;23314;51.114;6.900;2024-01-25T09:51:26;102605.84;;;8.97
37452;BMP280;23314;51.114;6.900;2024-01-25T09:53:53;102606.94;;;8.96
37452;BMP280;23314;51.114;6.900;2024-01-25T09:56:20;102604.34;;;9.00
37452;BMP280;23314;51.114;6.900;2024-01-25T09:58:46;102603.66;;;9.03
37452;BMP280;23314;51.114;6.900;2024-01-25T10:01:13;102596.56;;;9.07
37452;BMP280;23314;51.114;6.900;2024-01-25T10:03:43;102609.16;;;9.10
37452;BMP280;23314;51.114;6.900;2024-01-25T10:06:10;102605.53;;;9.19
37452;BMP280;23314;51.114;6.900;2024-01-25T10:08:36;102608.81;;;9.28
37452;BMP280;23314;51.114;6.900;2024-01-25T10:11:02;102610.16;;;9.38
37452;BMP280;23314;51.114;6.900;2024-01-25T10:13:28;102613.50;;;9.51
37452;BMP280;23314;51.114;6.900;2024-01-25T10:15:53;102603.84;;;9.62
37452;BMP280;23314;51.114;6.900;2024-01-25T10:18:19;102595.00;;;9.74
37452;BMP280;23314;51.114;6.900;2024-01-25T10:20:45;102607.06;;;9.87
37452;BMP280;23314;51.114;6.900;2024-01-25T10:23:10;102607.97;;;9.95
37452;BMP280;23314;51.114;6.900;2024-01-25T10:25:36;102595.34;;;10.11
37452;BMP280;23314;51.114;6.900;2024-01-25T10:28:06;102585.13;;;10.33
37452;BMP280;23314;51.114;6.900;2024-01-25T10:30:32;102583.53;;;10.52
37452;BMP280;23314;51.114;6.900;2024-01-25T10:32:58;102586.09;;;10.68
37452;BMP280;23314;51.114;6.900;2024-01-25T10:35:25;102583.19;;;10.76
37452;BMP280;23314;51.114;6.900;2024-01-25T10:37:51;102583.75;;;10.89
37452;BMP280;23314;51.114;6.900;2024-01-25T10:40:18;102580.03;;;10.98
37452;BMP280;23314;51.114;6.900;2024-01-25T10:42:44;102568.41;;;11.09
37452;BMP280;23314;51.114;6.900;2024-01-25T10:45:09;102558.97;;;11.16
37452;BMP280;23314;51.114;6.900;2024-01-25T10:47:35;102561.38;;;11.24
37452;BMP280;23314;51.114;6.900;2024-01-25T10:50:01;102550.59;;;11.48
37452;BMP280;23314;51.114;6.900;2024-01-25T10:52:28;102544.06;;;11.45
37452;BMP280;23314;51.114;6.900;2024-01-25T10:54:54;102542.81;;;11.35
37452;BMP280;23314;51.114;6.900;2024-01-25T10:57:20;102552.66;;;11.31
37452;BMP280;23314;51.114;6.900;2024-01-25T10:59:45;102550.41;;;11.33
37452;BMP280;23314;51.114;6.900;2024-01-25T11:02:11;102544.72;;;11.35
37452;BMP280;23314;51.114;6.900;2024-01-25T11:04:37;102532.16;;;11.39
37452;BMP280;23314;51.114;6.900;2024-01-25T11:07:09;102523.03;;;11.40
37452;BMP280;23314;51.114;6.900;2024-01-25T11:09:35;102522.69;;;11.45
37452;BMP280;23314;51.114;6.900;2024-01-25T11:12:13;102523.50;;;11.49
37452;BMP280;23314;51.114;6.900;2024-01-25T11:14:39;102523.16;;;11.51
37452;BMP280;23314;51.114;6.900;2024-01-25T11:17:15;102513.22;;;11.51
37452;BMP280;23314;51.114;6.900;2024-01-25T11:19:43;102499.88;;;11.55
37452;BMP280;23314;51.114;6.900;2024-01-25T11:22:11;102502.22;;;11.56
37452;BMP280;23314;51.114;6.900;2024-01-25T11:24:39;102512.63;;;11.65
37452;BMP280;23314;51.114;6.900;2024-01-25T11:27:05;102505.03;;;11.71
37452;BMP280;23314;51.114;6.900;2024-01-25T11:29:31;102501.69;;;11.78
37452;BMP280;23314;51.114;6.900;2024-01-25T11:31:57;102505.91;;;11.82
37452;BMP280;23314;51.114;6.900;2024-01-25T11:34:22;102504.06;;;11.90
37452;BMP280;23314;51.114;6.900;2024-01-25T11:36:48;102511.72;;;11.88
37452;BMP280;23314;51.114;6.900;2024-01-25T11:39:15;102503.34;;;11.89
37452;BMP280;23314;51.114;6.900;2024-01-25T11:41:42;102499.47;;;11.90
37452;BMP280;23314;51.114;6.900;2024-01-25T11:44:09;102486.59;;;11.96
37452;BMP280;23314;51.114;6.900;2024-01-25T11:46:35;102472.03;;;11.94
37452;BMP280;23314;51.114;6.900;2024-01-25T11:49:00;102462.53;;;12.00
37452;BMP280;23314;51.114;6.900;2024-01-25T11:51:26;102469.06;;;12.06
37452;BMP280;23314;51.114;6.900;2024-01-25T11:53:51;102473.69;;;12.09
37452;BMP280;23314;51.114;6.900;2024-01-25T11:56:21;102473.00;;;12.16
37452;BMP280;23314;51.114;6.900;2024-01-25T11:58:48;102474.22;;;12.26
37452;BMP280;23314;51.114;6.900;2024-01-25T12:01:15;102467.38;;;12.32
37452;BMP280;23314;51.114;6.900;2024-01-25T12:03:40;102478.44;;;12.30
37452;BMP280;23314;51.114;6.900;2024-01-25T12:06:06;102473.50;;;12.32
37452;BMP280;23314;51.114;6.900;2024-01-25T12:08:35;102469.31;;;12.35
37452;BMP280;23314;51.114;6.900;2024-01-25T12:11:08;102467.81;;;12.37
37452;BMP280;23314;51.114;6.900;2024-01-25T12:13:42;102466.31;;;12.44
37452;BMP280;23314;51.114;6.900;2024-01-25T12:16:09;102446.06;;;12.46
37452;BMP280;23314;51.114;6.900;2024-01-25T12:18:34;102438.09;;;12.53
37452;BMP280;23314;51.114;6.900;2024-01-25T12:21:04;102446.09;;;12.57
37452;BMP280;23314;51.114;6.900;2024-01-25T12:23:34;102452.59;;;12.56
37452;BMP280;23314;51.114;6.900;2024-01-25T12:26:01;102456.88;;;12.61
37452;BMP280;23314;51.114;6.900;2024-01-25T12:28:28;102457.28;;;12.66
37452;BMP280;23314;51.114;6.900;2024-01-25T12:30:54;102454.28;;;12.75
37452;BMP280;23314;51.114;6.900;2024-01-25T12:33:20;102460.00;;;12.77
37452;BMP280;23314;51.114;6.900;2024-01-25T12:35:45;102458.88;;;12.78
37452;BMP280;23314;51.114;6.900;2024-01-25T12:38:11;102446.66;;;12.84
37452;BMP280;23314;51.114;6.900;2024-01-25T12:40:36;102434.41;;;12.87
37452;BMP280;23314;51.114;6.900;2024-01-25T12:43:01;102452.00;;;12.81
37452;BMP280;23314;51.114;6.900;2024-01-25T12:45:26;102455.81;;;12.76
37452;BMP280;23314;51.114;6.900;2024-01-25T12:47:52;102439.31;;;12.70
37452;BMP280;23314;51.114;6.900;2024-01-25T12:50:17;102441.25;;;12.74
37452;BMP280;23314;51.114;6.900;2024-01-25T12:52:42;102430.53;;;12.77
37452;BMP280;23314;51.114;6.900;2024-01-25T12:55:08;102432.09;;;12.82
37452;BMP280;23314;51.114;6.900;2024-01-25T12:57:33;102446.28;;;12.82
37452;BMP280;23314;51.114;6.900;2024-01-25T12:59:59;102433.25;;;12.84
37452;BMP280;23314;51.114;6.900;2024-01-25T13:02:24;102435.56;;;12.82
37452;BMP280;23314;51.114;6.900;2024-01-25T13:04:50;102430.22;;;12.82
37452;BMP280;23314;51.114;6.900;2024-01-25T13:07:15;102420.25;;;12.83
37452;BMP280;23314;51.114;6.900;2024-01-25T13:09:41;102414.50;;;12.81
37452;BMP280;23314;51.114;6.900;2024-01-25T13:12:06;102408.00;;;12.82
37452;BMP280;23314;51.114;6.900;2024-01-25T13:14:32;102412.19;;;12.79
37452;BMP280;23314;51.114;6.900;2024-01-25T13:16:58;102402.22;;;12.80
37452;BMP280;23314;51.114;6.900;2024-01-25T13:19:23;102407.97;;;12.78
37452;BMP280;23314;51.114;6.900;2024-01-25T13:21:49;102395.75;;;12.81
37452;BMP280;23314;51.114;6.900;2024-01-25T13:24:14;102406.50;;;12.88
37452;BMP280;23314;51.114;6.900;2024-01-25T13:26:40;102401.53;;;12.94
37452;BMP280;23314;51.114;6.900;2024-01-25T13:29:05;102396.56;;;12.92
37452;BMP280;23314;51.114;6.900;2024-01-25T13:31:30;102394.66;;;13.00
37452;BMP280;23314;51.114;6.900;2024-01-25T13:33:55;102396.22;;;13.12
37452;BMP280;23314;51.114;6.900;2024-01-25T13:36:21;102387.06;;;13.20
37452;BMP280;23314;51.114;6.900;2024-01-25T13:38:46;102389.38;;;13.29
37452;BMP280;23314;51.114;6.900;2024-01-25T13:41:11;102387.47;;;13.33
37452;BMP280;23314;51.114;6.900;2024-01-25T13:43:37;102385.56;;;13.41
37452;BMP280;23314;51.114;6.900;2024-01-25T13:46:02;102382.16;;;13.44
37452;BMP280;23314;51.114;6.900;2024-01-25T13:48:27;102380.97;;;13.45
37452;BMP280;23314;51.114;6.900;2024-01-25T13:50:52;102380.97;;;13.48
37452;BMP280;23314;51.114;6.900;2024-01-25T13:53:18;102381.38;;;13.50
37452;BMP280;23314;51.114;6.900;2024-01-25T13:55:43;102382.50;;;13.53